Time;durP1;ratioP1;P1;durP2;ratioP2;P2;SDS_P1;SDS_P2;PMS_P1;PMS_P2;Temp;Humidity;BMP_temperature;BMP_pressure;BME280_temperature;BME280_humidity;BME280_pressure;Samples;Min_cycle;Max_cycle;Signal;HPM_P1;HPM_P2
2023/07/18 00:00:23;;;;;;;1.80;1.00;;;;;;;;;;5055585;28;20119;-80
2023/07/18 00:02:49;;;;;;;2.13;1.10;;;;;;;;;;5073462;28;20360;-81
2023/07/18 00:05:14;;;;;;;2.10;1.05;;;;;;;;;;5073748;28;20039;-80
2023/07/18 00:07:41;;;;;;;1.75;1.17;;;;;;;;;;5072268;28;20025;-81
2023/07/18 00:10:08;;;;;;;2.28;0.90;;;;;;;;;;5072304;28;20467;-81
2023/07/18 00:12:34;;;;;;;2.35;1.30;;;;;;;;;;5072200;28;20235;-81
2023/07/18 00:15:00;;;;;;;1.80;1.25;;;;;;;;;;5072191;28;20468;-81
2023/07/18 00:17:25;;;;;;;2.17;1.10;;;;;;;;;;5076799;28;20032;-81
2023/07/18 00:19:51;;;;;;;2.90;1.20;;;;;;;;;;5076764;28;20029;-80
2023/07/18 00:22:16;;;;;;;2.00;1.10;;;;;;;;;;5057490;28;20056;-80
2023/07/18 00:24:41;;;;;;;1.70;1.00;;;;;;;;;;5074432;28;20035;-81
2023/07/18 00:27:07;;;;;;;3.67;1.27;;;;;;;;;;5073863;28;20036;-81
2023/07/18 00:29:32;;;;;;;1.77;1.20;;;;;;;;;;5072308;28;20115;-81
2023/07/18 00:31:57;;;;;;;1.83;0.93;;;;;;;;;;5072473;28;20033;-81
2023/07/18 00:34:23;;;;;;;3.70;1.23;;;;;;;;;;5072788;28;20047;-80
2023/07/18 00:36:48;;;;;;;2.58;1.45;;;;;;;;;;5074671;28;20433;-81
2023/07/18 00:39:14;;;;;;;4.82;2.13;;;;;;;;;;5077549;28;20039;-80
2023/07/18 00:41:39;;;;;;;3.75;1.30;;;;;;;;;;5077695;28;20437;-81
2023/07/18 00:44:04;;;;;;;2.13;1.30;;;;;;;;;;5059310;28;20116;-80
2023/07/18 00:46:31;;;;;;;4.97;1.20;;;;;;;;;;5077132;28;20035;-81
2023/07/18 00:48:57;;;;;;;2.35;1.10;;;;;;;;;;5059185;28;20395;-81
2023/07/18 00:51:24;;;;;;;2.65;1.35;;;;;;;;;;5059522;28;20032;-80
2023/07/18 00:53:51;;;;;;;3.28;1.48;;;;;;;;;;5059154;28;20041;-81
2023/07/18 00:56:16;;;;;;;1.98;1.10;;;;;;;;;;5075693;28;20087;-81
2023/07/18 00:58:41;;;;;;;2.63;1.58;;;;;;;;;;5076901;28;20068;-80
2023/07/18 01:01:07;;;;;;;1.40;1.15;;;;;;;;;;5077075;28;20428;-80
2023/07/18 01:03:32;;;;;;;3.53;1.15;;;;;;;;;;5076808;28;20024;-80
2023/07/18 01:05:58;;;;;;;1.85;1.10;;;;;;;;;;5075787;28;20414;-80
2023/07/18 01:08:23;;;;;;;2.22;1.25;;;;;;;;;;5075503;28;20043;-80
2023/07/18 01:10:48;;;;;;;1.45;0.93;;;;;;;;;;5075396;28;20110;-80
2023/07/18 01:13:14;;;;;;;2.60;1.30;;;;;;;;;;5075213;28;20052;-80
2023/07/18 01:15:39;;;;;;;1.27;1.00;;;;;;;;;;5075465;28;20039;-80
2023/07/18 01:18:08;;;;;;;2.10;1.15;;;;;;;;;;5058559;28;20489;-80
2023/07/18 01:20:35;;;;;;;5.18;1.48;;;;;;;;;;5075872;28;20047;-81
2023/07/18 01:23:03;;;;;;;1.50;1.13;;;;;;;;;;5075173;28;20082;-79
2023/07/18 01:25:30;;;;;;;2.20;1.00;;;;;;;;;;5075176;28;20491;-80
2023/07/18 01:27:56;;;;;;;1.52;1.08;;;;;;;;;;5076279;28;20031;-80
2023/07/18 01:30:24;;;;;;;2.85;1.10;;;;;;;;;;5075376;28;20075;-80
2023/07/18 01:32:50;;;;;;;2.30;1.17;;;;;;;;;;5058128;28;20115;-80
2023/07/18 01:35:17;;;;;;;2.08;1.08;;;;;;;;;;5058037;28;20092;-80
2023/07/18 01:37:44;;;;;;;3.35;1.30;;;;;;;;;;5076402;28;20024;-80
2023/07/18 01:40:15;;;;;;;1.75;1.02;;;;;;;;;;5074758;28;20141;-80
2023/07/18 01:42:42;;;;;;;3.88;1.20;;;;;;;;;;5075552;28;20146;-80
2023/07/18 01:45:09;;;;;;;2.60;1.13;;;;;;;;;;5075005;28;20031;-80
2023/07/18 01:47:36;;;;;;;3.17;1.17;;;;;;;;;;5074572;28;20071;-80
2023/07/18 01:50:04;;;;;;;2.05;1.02;;;;;;;;;;5075398;28;20536;-81
2023/07/18 01:52:30;;;;;;;3.88;1.20;;;;;;;;;;5075807;28;20029;-80
2023/07/18 01:54:58;;;;;;;1.48;0.93;;;;;;;;;;5057864;28;20032;-81
2023/07/18 01:57:25;;;;;;;2.90;1.17;;;;;;;;;;5074545;28;20067;-81
2023/07/18 01:59:51;;;;;;;3.28;1.40;;;;;;;;;;5074836;28;20056;-80
2023/07/18 02:02:17;;;;;;;2.13;1.10;;;;;;;;;;5075663;28;20110;-81
2023/07/18 02:04:43;;;;;;;2.20;1.00;;;;;;;;;;5074435;28;20028;-80
2023/07/18 02:07:08;;;;;;;2.63;1.27;;;;;;;;;;5074403;28;20028;-84
2023/07/18 02:09:34;;;;;;;1.60;1.05;;;;;;;;;;5075829;28;20054;-81
2023/07/18 02:12:00;;;;;;;2.63;1.10;;;;;;;;;;5075542;28;20036;-79
2023/07/18 02:14:25;;;;;;;1.83;1.00;;;;;;;;;;5074119;28;20025;-80
2023/07/18 02:16:50;;;;;;;1.67;1.00;;;;;;;;;;5074191;28;20032;-80
2023/07/18 02:19:16;;;;;;;2.10;0.90;;;;;;;;;;5057377;28;20029;-80
2023/07/18 02:21:41;;;;;;;2.20;1.20;;;;;;;;;;5074046;28;20032;-80
2023/07/18 02:24:07;;;;;;;5.95;1.40;;;;;;;;;;5074437;28;20359;-80
2023/07/18 02:26:32;;;;;;;2.65;1.27;;;;;;;;;;5075505;28;20037;-80
2023/07/18 02:28:57;;;;;;;1.33;0.93;;;;;;;;;;5073881;28;20033;-81
2023/07/18 02:31:23;;;;;;;1.90;1.10;;;;;;;;;;5057196;28;20479;-81
2023/07/18 02:33:48;;;;;;;2.50;1.10;;;;;;;;;;5073761;28;20025;-82
2023/07/18 02:36:13;;;;;;;2.72;1.00;;;;;;;;;;5073756;28;20024;-81
2023/07/18 02:38:39;;;;;;;1.55;1.17;;;;;;;;;;5074061;28;20032;-81
2023/07/18 02:41:04;;;;;;;3.92;1.30;;;;;;;;;;5073716;28;20055;-81
2023/07/18 02:43:29;;;;;;;1.85;1.08;;;;;;;;;;5073716;28;20031;-81
2023/07/18 02:45:55;;;;;;;1.70;1.05;;;;;;;;;;5074807;28;20039;-81
2023/07/18 02:48:21;;;;;;;2.55;1.13;;;;;;;;;;5073852;28;20025;-81
2023/07/18 02:50:48;;;;;;;1.95;1.27;;;;;;;;;;5073995;28;20377;-81
2023/07/18 02:53:13;;;;;;;3.22;1.30;;;;;;;;;;5073495;28;20082;-81
2023/07/18 02:55:39;;;;;;;2.17;1.00;;;;;;;;;;5074674;28;20056;-81
2023/07/18 02:58:04;;;;;;;1.58;1.00;;;;;;;;;;5074566;28;20094;-81
2023/07/18 03:00:33;;;;;;;2.92;1.52;;;;;;;;;;5073332;28;20024;-81
2023/07/18 03:02:59;;;;;;;2.05;1.17;;;;;;;;;;5073280;28;20061;-81
2023/07/18 03:05:24;;;;;;;3.88;1.58;;;;;;;;;;5056537;28;20064;-81
2023/07/18 03:07:50;;;;;;;2.45;1.38;;;;;;;;;;5058153;28;20471;-80
2023/07/18 03:10:16;;;;;;;2.75;1.02;;;;;;;;;;5056751;28;20036;-80
2023/07/18 03:12:41;;;;;;;1.83;1.17;;;;;;;;;;5073640;28;20033;-80
2023/07/18 03:15:09;;;;;;;2.95;1.40;;;;;;;;;;5074210;28;20032;-80
2023/07/18 03:17:35;;;;;;;1.75;1.10;;;;;;;;;;5073322;28;20038;-80
2023/07/18 03:20:05;;;;;;;2.78;1.13;;;;;;;;;;5074427;28;20119;-80
2023/07/18 03:22:30;;;;;;;1.90;1.17;;;;;;;;;;5074352;28;20048;-80
2023/07/18 03:25:04;;;;;;;2.80;1.25;;;;;;;;;;5073126;28;20044;-80
2023/07/18 03:27:29;;;;;;;3.03;1.48;;;;;;;;;;5072714;28;20024;-80
2023/07/18 03:29:54;;;;;;;4.85;1.52;;;;;;;;;;5072657;28;20032;-80
2023/07/18 03:32:20;;;;;;;3.13;1.25;;;;;;;;;;5072487;28;20032;-80
2023/07/18 03:34:45;;;;;;;2.35;1.10;;;;;;;;;;5072956;28;20107;-81
2023/07/18 03:37:11;;;;;;;2.15;1.23;;;;;;;;;;5073796;28;20025;-80
2023/07/18 03:39:36;;;;;;;2.55;1.10;;;;;;;;;;5073903;28;20032;-81
2023/07/18 03:42:02;;;;;;;4.05;1.20;;;;;;;;;;5056059;28;20033;-81
2023/07/18 03:44:27;;;;;;;1.80;1.00;;;;;;;;;;5073082;28;20036;-81
2023/07/18 03:46:53;;;;;;;3.38;1.42;;;;;;;;;;5055624;28;20178;-80
2023/07/18 03:49:18;;;;;;;4.72;1.35;;;;;;;;;;5055727;28;20032;-81
2023/07/18 03:51:44;;;;;;;1.77;1.10;;;;;;;;;;5072262;28;20391;-80
2023/07/18 03:54:09;;;;;;;2.63;1.45;;;;;;;;;;5073372;28;20056;-80
2023/07/18 03:56:34;;;;;;;4.45;1.50;;;;;;;;;;5073215;28;20495;-80
2023/07/18 03:59:00;;;;;;;4.03;1.40;;;;;;;;;;5073551;28;20028;-80
2023/07/18 04:01:25;;;;;;;1.52;1.10;;;;;;;;;;5072135;28;20028;-81
2023/07/18 04:03:51;;;;;;;2.40;1.20;;;;;;;;;;5073338;28;20103;-80
2023/07/18 04:06:16;;;;;;;1.88;1.30;;;;;;;;;;5072058;28;20029;-80
2023/07/18 04:08:43;;;;;;;2.80;1.65;;;;;;;;;;5072027;28;20127;-80
2023/07/18 04:11:08;;;;;;;1.60;1.08;;;;;;;;;;5072516;28;20501;-80
2023/07/18 04:13:33;;;;;;;2.67;1.20;;;;;;;;;;5071948;28;20131;-80
2023/07/18 04:15:59;;;;;;;3.88;1.40;;;;;;;;;;5072111;28;20474;-80
2023/07/18 04:18:24;;;;;;;4.13;1.13;;;;;;;;;;5073565;28;20029;-80
2023/07/18 04:20:57;;;;;;;2.33;1.30;;;;;;;;;;5074264;28;20056;-81
2023/07/18 04:23:22;;;;;;;2.00;1.02;;;;;;;;;;5056367;28;20036;-80
2023/07/18 04:25:59;;;;;;;3.05;1.35;;;;;;;;;;5055389;28;20032;-80
2023/07/18 04:28:27;;;;;;;1.13;1.00;;;;;;;;;;5072172;28;20400;-80
2023/07/18 04:30:52;;;;;;;2.45;1.20;;;;;;;;;;5072526;28;20028;-80
2023/07/18 04:33:17;;;;;;;1.73;1.02;;;;;;;;;;5072247;28;20032;-80
2023/07/18 04:35:45;;;;;;;1.38;0.95;;;;;;;;;;5055480;28;20061;-80
2023/07/18 04:38:11;;;;;;;3.05;1.40;;;;;;;;;;5072169;28;20021;-77
2023/07/18 04:40:36;;;;;;;2.40;1.13;;;;;;;;;;5071926;28;20035;-77
2023/07/18 04:43:01;;;;;;;2.05;1.38;;;;;;;;;;5073426;28;20024;-77
2023/07/18 04:45:27;;;;;;;1.92;1.30;;;;;;;;;;5055161;28;20502;-77
2023/07/18 04:47:52;;;;;;;3.60;1.60;;;;;;;;;;5055355;28;20483;-77
2023/07/18 04:50:18;;;;;;;2.42;1.25;;;;;;;;;;5071764;28;20086;-78
2023/07/18 04:52:43;;;;;;;2.17;1.20;;;;;;;;;;5054897;28;20043;-79
2023/07/18 04:55:09;;;;;;;2.60;1.25;;;;;;;;;;5071794;28;20030;-77
2023/07/18 04:57:34;;;;;;;1.48;1.30;;;;;;;;;;5054869;28;20055;-77
2023/07/18 05:00:00;;;;;;;2.13;1.25;;;;;;;;;;5071707;28;20024;-78
2023/07/18 05:02:25;;;;;;;1.88;1.30;;;;;;;;;;5073544;28;20031;-78
2023/07/18 05:04:51;;;;;;;1.38;0.93;;;;;;;;;;5071714;28;20369;-78
2023/07/18 05:07:16;;;;;;;2.80;1.23;;;;;;;;;;5072866;28;20028;-78
2023/07/18 05:09:42;;;;;;;3.22;1.33;;;;;;;;;;5088379;28;20025;-77
2023/07/18 05:12:07;;;;;;;2.50;1.25;;;;;;;;;;5088432;28;20170;-75
2023/07/18 05:14:33;;;;;;;2.15;1.27;;;;;;;;;;5072975;28;20081;-75
2023/07/18 05:16:58;;;;;;;2.47;1.02;;;;;;;;;;5071630;28;20035;-78
2023/07/18 05:19:24;;;;;;;2.15;1.10;;;;;;;;;;5071772;28;20032;-77
2023/07/18 05:21:50;;;;;;;4.80;1.15;;;;;;;;;;5072803;28;20051;-78
2023/07/18 05:24:15;;;;;;;2.45;1.40;;;;;;;;;;5074827;28;20017;-78
2023/07/18 05:26:41;;;;;;;4.32;1.13;;;;;;;;;;5076590;28;20029;-78
2023/07/18 05:29:06;;;;;;;2.30;1.25;;;;;;;;;;5058466;28;20024;-78
2023/07/18 05:31:32;;;;;;;3.67;1.40;;;;;;;;;;5058539;28;20051;-78
2023/07/18 05:33:57;;;;;;;3.03;1.65;;;;;;;;;;5074908;28;20063;-79
2023/07/18 05:36:22;;;;;;;2.90;1.33;;;;;;;;;;5075326;28;20062;-78
2023/07/18 05:38:48;;;;;;;2.58;1.15;;;;;;;;;;5058392;28;20036;-78
2023/07/18 05:41:13;;;;;;;2.25;1.20;;;;;;;;;;5076309;28;20159;-78
2023/07/18 05:43:39;;;;;;;2.13;1.27;;;;;;;;;;5076008;28;20021;-78
2023/07/18 05:46:04;;;;;;;3.95;1.10;;;;;;;;;;5076500;28;20463;-78
2023/07/18 05:48:30;;;;;;;3.33;1.27;;;;;;;;;;5074732;28;20032;-78
2023/07/18 05:50:55;;;;;;;4.53;1.35;;;;;;;;;;5076767;28;20040;-78
2023/07/18 05:53:21;;;;;;;3.70;1.38;;;;;;;;;;5076079;28;20029;-78
2023/07/18 05:55:46;;;;;;;4.28;1.67;;;;;;;;;;5057669;28;20049;-78
2023/07/18 05:58:12;;;;;;;5.30;1.40;;;;;;;;;;5057850;28;20097;-79
2023/07/18 06:00:37;;;;;;;2.67;1.40;;;;;;;;;;5075712;28;20029;-78
2023/07/18 06:03:02;;;;;;;2.97;1.40;;;;;;;;;;5074628;28;20025;-78
2023/07/18 06:05:28;;;;;;;1.58;1.15;;;;;;;;;;5057716;28;20063;-78
2023/07/18 06:07:53;;;;;;;2.53;1.40;;;;;;;;;;5075873;28;20096;-78
2023/07/18 06:10:19;;;;;;;3.10;1.60;;;;;;;;;;5076146;28;20020;-79
2023/07/18 06:12:44;;;;;;;8.10;1.50;;;;;;;;;;5075472;28;20028;-79
2023/07/18 06:15:10;;;;;;;6.38;1.60;;;;;;;;;;5074455;28;20033;-79
2023/07/18 06:17:35;;;;;;;2.55;1.30;;;;;;;;;;5075742;28;20086;-79
2023/07/18 06:20:03;;;;;;;3.88;1.33;;;;;;;;;;5075624;28;20059;-78
2023/07/18 06:22:29;;;;;;;2.33;1.40;;;;;;;;;;5074056;28;20051;-79
2023/07/18 06:24:54;;;;;;;4.63;1.30;;;;;;;;;;5090905;28;20090;-79
2023/07/18 06:27:19;;;;;;;4.30;1.35;;;;;;;;;;5075345;28;20087;-78
2023/07/18 06:29:46;;;;;;;2.55;1.30;;;;;;;;;;5073746;28;20020;-78
2023/07/18 06:32:12;;;;;;;2.10;1.17;;;;;;;;;;5057339;28;20052;-78
2023/07/18 06:34:40;;;;;;;2.58;1.23;;;;;;;;;;5074671;28;20095;-78
2023/07/18 06:37:08;;;;;;;3.75;1.40;;;;;;;;;;5074152;28;20034;-78
2023/07/18 06:39:34;;;;;;;2.15;1.20;;;;;;;;;;5073713;28;20048;-78
2023/07/18 06:41:59;;;;;;;4.65;1.30;;;;;;;;;;5074912;28;20054;-78
2023/07/18 06:44:24;;;;;;;1.17;1.00;;;;;;;;;;5075189;28;20047;-78
2023/07/18 06:46:50;;;;;;;4.70;1.00;;;;;;;;;;5074926;28;20029;-79
2023/07/18 06:49:18;;;;;;;2.67;1.20;;;;;;;;;;5074492;28;20036;-79
2023/07/18 06:51:43;;;;;;;2.53;1.30;;;;;;;;;;5073760;28;20032;-79
2023/07/18 06:54:09;;;;;;;2.15;1.38;;;;;;;;;;5057087;28;20398;-79
2023/07/18 06:56:34;;;;;;;2.70;1.48;;;;;;;;;;5073868;28;20081;-79
2023/07/18 06:59:01;;;;;;;3.92;1.30;;;;;;;;;;5040486;28;20044;-77
2023/07/18 07:01:26;;;;;;;2.28;1.33;;;;;;;;;;5074683;28;20455;-76
2023/07/18 07:03:51;;;;;;;2.75;1.30;;;;;;;;;;5073486;28;20031;-79
2023/07/18 07:06:18;;;;;;;2.38;1.00;;;;;;;;;;5073741;28;20021;-78
2023/07/18 07:08:43;;;;;;;5.03;1.30;;;;;;;;;;5075341;28;20430;-78
2023/07/18 07:11:09;;;;;;;2.33;1.05;;;;;;;;;;5073410;28;20024;-81
2023/07/18 07:13:35;;;;;;;3.33;1.33;;;;;;;;;;5074226;28;20028;-78
2023/07/18 07:16:03;;;;;;;5.07;1.45;;;;;;;;;;5074016;28;20103;-79
2023/07/18 07:18:29;;;;;;;1.85;1.10;;;;;;;;;;5056772;28;20033;-80
2023/07/18 07:20:54;;;;;;;1.92;1.25;;;;;;;;;;5075042;28;20032;-79
2023/07/18 07:23:20;;;;;;;3.33;1.25;;;;;;;;;;5074514;28;20115;-79
2023/07/18 07:25:45;;;;;;;1.42;1.13;;;;;;;;;;5056435;28;20369;-79
2023/07/18 07:28:11;;;;;;;1.65;1.20;;;;;;;;;;5074008;28;20028;-79
2023/07/18 07:30:36;;;;;;;2.70;1.15;;;;;;;;;;5072872;28;20426;-79
2023/07/18 07:33:05;;;;;;;3.90;1.20;;;;;;;;;;5072508;28;20048;-80
2023/07/18 07:35:30;;;;;;;2.55;1.10;;;;;;;;;;5073062;28;20043;-79
2023/07/18 07:37:56;;;;;;;2.72;1.40;;;;;;;;;;5072684;28;20036;-79
2023/07/18 07:40:22;;;;;;;1.98;1.20;;;;;;;;;;5072658;28;20388;-80
2023/07/18 07:42:47;;;;;;;2.28;1.20;;;;;;;;;;5073706;28;20407;-80
2023/07/18 07:45:13;;;;;;;1.40;1.13;;;;;;;;;;5072623;28;20387;-81
2023/07/18 07:47:39;;;;;;;5.80;1.35;;;;;;;;;;5054977;28;20491;-79
2023/07/18 07:50:05;;;;;;;4.22;1.30;;;;;;;;;;5073656;28;20032;-79
2023/07/18 07:52:31;;;;;;;4.68;1.40;;;;;;;;;;5072527;28;20045;-81
2023/07/18 07:54:57;;;;;;;4.60;1.58;;;;;;;;;;5073627;28;20044;-80
2023/07/18 07:57:23;;;;;;;3.00;1.30;;;;;;;;;;5072261;28;20109;-80
2023/07/18 07:59:50;;;;;;;3.97;1.50;;;;;;;;;;5072516;28;20036;-80
2023/07/18 08:02:15;;;;;;;2.70;1.50;;;;;;;;;;5072452;28;20021;-80
2023/07/18 08:04:41;;;;;;;4.15;1.80;;;;;;;;;;5055807;28;20078;-79
2023/07/18 08:07:08;;;;;;;2.65;1.13;;;;;;;;;;5073435;28;20082;-80
2023/07/18 08:09:33;;;;;;;4.35;1.38;;;;;;;;;;5055507;28;20036;-80
2023/07/18 08:11:58;;;;;;;8.90;2.60;;;;;;;;;;5072227;28;20554;-78
2023/07/18 08:14:24;;;;;;;18.75;1.90;;;;;;;;;;5072753;28;20387;-79
2023/07/18 08:16:49;;;;;;;3.95;1.58;;;;;;;;;;5072409;28;20029;-78
2023/07/18 08:19:15;;;;;;;4.93;1.50;;;;;;;;;;5073768;28;20047;-79
2023/07/18 08:21:41;;;;;;;6.03;1.60;;;;;;;;;;5073515;28;20047;-79
2023/07/18 08:24:07;;;;;;;8.52;1.50;;;;;;;;;;5072235;28;20043;-79
2023/07/18 08:26:33;;;;;;;8.55;1.40;;;;;;;;;;5070392;28;20029;-76
2023/07/18 08:28:58;;;;;;;6.45;1.90;;;;;;;;;;5053188;28;20104;-77
2023/07/18 08:31:24;;;;;;;2.50;1.10;;;;;;;;;;5053398;28;20535;-79
2023/07/18 08:33:50;;;;;;;3.55;1.33;;;;;;;;;;5058918;28;20496;-77
2023/07/18 08:36:16;;;;;;;13.48;1.60;;;;;;;;;;5085573;28;20035;-77
2023/07/18 08:38:49;;;;;;;5.38;1.48;;;;;;;;;;5093137;28;20394;-78
2023/07/18 08:41:14;;;;;;;2.92;1.55;;;;;;;;;;5069371;28;20064;-78
2023/07/18 08:43:40;;;;;;;7.63;1.80;;;;;;;;;;5095241;28;20058;-78
2023/07/18 08:46:06;;;;;;;2.17;1.15;;;;;;;;;;5091971;28;20028;-78
2023/07/18 08:48:31;;;;;;;4.20;1.30;;;;;;;;;;5085920;28;20036;-78
2023/07/18 08:50:58;;;;;;;4.72;1.33;;;;;;;;;;5072709;28;20074;-78
2023/07/18 08:53:24;;;;;;;3.35;1.10;;;;;;;;;;5054567;28;20511;-78
2023/07/18 08:55:49;;;;;;;2.00;1.20;;;;;;;;;;5072586;28;20039;-78
2023/07/18 08:58:18;;;;;;;3.88;1.40;;;;;;;;;;5073249;28;20051;-78
2023/07/18 09:00:43;;;;;;;2.55;1.40;;;;;;;;;;5076817;28;20028;-78
2023/07/18 09:03:09;;;;;;;2.03;0.90;;;;;;;;;;5078601;28;20025;-78
2023/07/18 09:05:36;;;;;;;3.80;1.30;;;;;;;;;;5058566;28;20479;-79
2023/07/18 09:08:03;;;;;;;4.05;1.40;;;;;;;;;;5075477;28;20027;-78
2023/07/18 09:10:29;;;;;;;2.38;1.27;;;;;;;;;;5084902;28;20027;-78
2023/07/18 09:13:03;;;;;;;4.45;1.48;;;;;;;;;;5095573;28;20020;-78
2023/07/18 09:15:29;;;;;;;2.92;1.52;;;;;;;;;;5074765;28;20483;-79
2023/07/18 09:17:59;;;;;;;7.20;1.40;;;;;;;;;;5074699;28;20028;-78
2023/07/18 09:20:26;;;;;;;2.72;1.40;;;;;;;;;;5074675;28;20029;-78
2023/07/18 09:22:56;;;;;;;3.00;1.15;;;;;;;;;;5074830;28;20463;-79
2023/07/18 09:25:23;;;;;;;2.95;1.13;;;;;;;;;;5058518;28;20387;-79
2023/07/18 09:27:55;;;;;;;6.70;1.60;;;;;;;;;;5075945;28;20031;-79
2023/07/18 09:30:41;;;;;;;3.53;1.08;;;;;;;;;;5074688;28;20032;-78
2023/07/18 09:33:07;;;;;;;2.15;1.00;;;;;;;;;;5075396;28;20045;-79
2023/07/18 09:35:37;;;;;;;3.75;1.33;;;;;;;;;;5075664;28;20119;-78
2023/07/18 09:38:02;;;;;;;2.47;1.00;;;;;;;;;;5074804;28;20438;-78
2023/07/18 09:40:28;;;;;;;2.53;1.20;;;;;;;;;;5083852;28;20080;-78
2023/07/18 09:42:54;;;;;;;2.17;1.02;;;;;;;;;;5076396;28;20063;-78
2023/07/18 09:45:20;;;;;;;5.78;1.52;;;;;;;;;;5092781;28;20028;-78
2023/07/18 09:47:46;;;;;;;3.78;1.17;;;;;;;;;;5094169;28;20038;-78
2023/07/18 09:50:12;;;;;;;2.35;1.30;;;;;;;;;;5095532;28;20031;-78
2023/07/18 09:52:57;;;;;;;1.60;0.90;;;;;;;;;;5077166;28;20406;-78
2023/07/18 09:55:29;;;;;;;3.15;1.15;;;;;;;;;;5091307;28;20036;-78
2023/07/18 09:57:55;;;;;;;5.55;1.10;;;;;;;;;;5094868;28;20044;-78
2023/07/18 10:00:24;;;;;;;5.85;1.50;;;;;;;;;;5095995;28;20043;-77
2023/07/18 10:02:52;;;;;;;4.05;1.02;;;;;;;;;;5078669;28;20024;-79
2023/07/18 10:05:18;;;;;;;5.13;1.15;;;;;;;;;;5094236;28;20028;-78
2023/07/18 10:07:44;;;;;;;4.35;1.27;;;;;;;;;;5093588;28;20040;-78
2023/07/18 10:10:10;;;;;;;1.80;1.10;;;;;;;;;;5094218;28;20035;-77
2023/07/18 10:12:37;;;;;;;5.18;1.40;;;;;;;;;;5076838;28;20401;-78
2023/07/18 10:15:04;;;;;;;4.28;1.30;;;;;;;;;;5095645;28;20510;-77
2023/07/18 10:17:35;;;;;;;5.90;1.35;;;;;;;;;;5093433;28;20058;-78
2023/07/18 10:20:18;;;;;;;2.90;1.45;;;;;;;;;;5096304;28;20032;-78
2023/07/18 10:22:54;;;;;;;3.35;1.27;;;;;;;;;;5093828;28;20035;-79
2023/07/18 10:25:20;;;;;;;8.70;1.10;;;;;;;;;;5094042;28;20024;-80
2023/07/18 10:27:47;;;;;;;4.43;1.10;;;;;;;;;;5093616;28;20112;-77
2023/07/18 10:30:17;;;;;;;5.53;1.30;;;;;;;;;;5093851;28;20034;-79
2023/07/18 10:32:52;;;;;;;3.42;1.20;;;;;;;;;;5093547;28;20032;-78
2023/07/18 10:35:19;;;;;;;2.78;1.13;;;;;;;;;;5093971;28;20028;-77
2023/07/18 10:37:50;;;;;;;4.13;1.40;;;;;;;;;;5093361;28;20063;-77
2023/07/18 10:40:43;;;;;;;3.17;1.50;;;;;;;;;;5110313;28;20024;-78
2023/07/18 10:43:10;;;;;;;6.30;1.42;;;;;;;;;;5083387;28;20572;-79
2023/07/18 10:45:41;;;;;;;4.00;1.40;;;;;;;;;;5093721;28;20031;-78
2023/07/18 10:48:19;;;;;;;7.55;1.23;;;;;;;;;;5077018;28;20139;-78
2023/07/18 10:50:46;;;;;;;4.22;1.17;;;;;;;;;;5077420;28;20065;-77
2023/07/18 10:53:29;;;;;;;2.17;1.10;;;;;;;;;;5093749;28;20513;-79
2023/07/18 10:55:56;;;;;;;2.80;1.17;;;;;;;;;;5095307;28;20047;-77
2023/07/18 10:58:21;;;;;;;3.17;1.15;;;;;;;;;;5093715;28;20043;-77
2023/07/18 11:00:48;;;;;;;3.30;1.00;;;;;;;;;;5095195;28;20032;-77
2023/07/18 11:03:19;;;;;;;3.60;1.38;;;;;;;;;;5093976;28;20395;-77
2023/07/18 11:05:52;;;;;;;2.85;1.00;;;;;;;;;;5093713;28;20501;-77
2023/07/18 11:08:28;;;;;;;1.85;0.88;;;;;;;;;;5093633;28;20024;-78
2023/07/18 11:11:02;;;;;;;2.03;1.00;;;;;;;;;;5093805;28;20043;-77
2023/07/18 11:13:35;;;;;;;4.28;1.10;;;;;;;;;;5077364;28;20062;-78
2023/07/18 11:16:05;;;;;;;4.53;1.20;;;;;;;;;;5077039;28;20103;-78
2023/07/18 11:18:34;;;;;;;1.70;1.10;;;;;;;;;;5085127;28;20044;-77
2023/07/18 11:21:06;;;;;;;7.53;1.35;;;;;;;;;;5078865;28;20494;-76
2023/07/18 11:23:32;;;;;;;2.60;1.08;;;;;;;;;;5097335;28;20036;-75
2023/07/18 11:25:58;;;;;;;2.33;1.02;;;;;;;;;;5103837;28;20020;-75
2023/07/18 11:28:33;;;;;;;5.93;1.52;;;;;;;;;;5076083;28;20054;-75
2023/07/18 11:30:59;;;;;;;2.28;0.90;;;;;;;;;;5086997;28;20020;-74
2023/07/18 11:33:28;;;;;;;8.52;1.58;;;;;;;;;;5081374;28;20027;-74
2023/07/18 11:35:54;;;;;;;4.28;1.30;;;;;;;;;;5080368;28;20032;-74
2023/07/18 11:38:21;;;;;;;4.28;1.17;;;;;;;;;;5077208;28;20059;-75
2023/07/18 11:40:47;;;;;;;3.38;1.25;;;;;;;;;;5106528;28;20036;-77
2023/07/18 11:43:19;;;;;;;3.50;1.02;;;;;;;;;;5073950;28;20429;-77
2023/07/18 11:45:46;;;;;;;4.63;1.27;;;;;;;;;;5090764;28;20032;-77
2023/07/18 11:48:12;;;;;;;1.48;0.98;;;;;;;;;;5101752;28;20029;-77
2023/07/18 11:50:42;;;;;;;3.28;1.45;;;;;;;;;;5072877;28;20430;-77
2023/07/18 11:53:07;;;;;;;4.25;1.17;;;;;;;;;;5089255;28;20021;-77
2023/07/18 11:55:33;;;;;;;2.45;1.05;;;;;;;;;;5073741;28;20106;-78
2023/07/18 11:57:59;;;;;;;4.20;1.20;;;;;;;;;;5072453;28;20044;-78
2023/07/18 12:00:25;;;;;;;3.20;1.50;;;;;;;;;;5073842;28;20394;-78
2023/07/18 12:02:52;;;;;;;5.25;1.20;;;;;;;;;;5074180;28;20021;-78
2023/07/18 12:05:17;;;;;;;3.50;1.10;;;;;;;;;;5072447;28;20039;-78
2023/07/18 12:07:46;;;;;;;5.95;1.30;;;;;;;;;;5073608;28;20024;-78
2023/07/18 12:10:14;;;;;;;3.63;1.17;;;;;;;;;;5072714;28;20024;-78
2023/07/18 12:12:39;;;;;;;4.43;1.50;;;;;;;;;;5072278;28;20070;-79
2023/07/18 12:15:06;;;;;;;2.35;1.17;;;;;;;;;;5089618;28;20032;-78
2023/07/18 12:17:31;;;;;;;2.88;1.17;;;;;;;;;;5073703;28;20438;-79
2023/07/18 12:19:57;;;;;;;4.45;1.30;;;;;;;;;;5073473;28;20036;-78
2023/07/18 12:22:24;;;;;;;4.55;1.40;;;;;;;;;;5055465;28;20055;-78
2023/07/18 12:24:49;;;;;;;3.17;1.60;;;;;;;;;;5072183;28;20432;-78
2023/07/18 12:27:15;;;;;;;4.60;1.30;;;;;;;;;;5072705;28;20056;-78
2023/07/18 12:29:42;;;;;;;1.75;1.02;;;;;;;;;;5073409;28;20060;-78
2023/07/18 12:32:09;;;;;;;1.95;1.00;;;;;;;;;;5089120;28;20025;-78
2023/07/18 12:34:37;;;;;;;2.80;1.40;;;;;;;;;;5076271;28;20103;-78
2023/07/18 12:37:02;;;;;;;1.70;1.13;;;;;;;;;;5093085;28;20054;-79
2023/07/18 12:39:28;;;;;;;2.40;1.10;;;;;;;;;;5110042;28;20035;-78
2023/07/18 12:41:53;;;;;;;1.70;1.13;;;;;;;;;;5077308;28;20055;-79
2023/07/18 12:44:20;;;;;;;2.03;1.00;;;;;;;;;;5077273;28;20044;-78
2023/07/18 12:46:49;;;;;;;2.47;0.98;;;;;;;;;;5076443;28;20020;-78
2023/07/18 12:49:14;;;;;;;1.75;1.10;;;;;;;;;;5076406;28;20036;-78
2023/07/18 12:51:42;;;;;;;3.53;1.17;;;;;;;;;;5077254;28;20077;-78
2023/07/18 12:54:08;;;;;;;1.08;0.93;;;;;;;;;;5077065;28;20031;-78
2023/07/18 12:56:34;;;;;;;3.63;1.30;;;;;;;;;;5077735;28;20147;-78
2023/07/18 12:59:00;;;;;;;1.75;0.90;;;;;;;;;;5077083;28;20395;-78
2023/07/18 13:01:25;;;;;;;1.50;1.08;;;;;;;;;;5075995;28;20024;-78
2023/07/18 13:03:51;;;;;;;1.52;0.98;;;;;;;;;;5077138;28;20036;-78
2023/07/18 13:06:16;;;;;;;3.08;0.85;;;;;;;;;;5077085;28;20522;-78
2023/07/18 13:08:41;;;;;;;1.00;0.90;;;;;;;;;;5092572;28;20032;-78
2023/07/18 13:11:07;;;;;;;2.42;1.00;;;;;;;;;;5093042;28;20032;-78
2023/07/18 13:13:32;;;;;;;2.22;1.13;;;;;;;;;;5077286;28;20600;-78
2023/07/18 13:15:58;;;;;;;1.10;0.80;;;;;;;;;;5078829;28;20033;-78
2023/07/18 13:18:23;;;;;;;2.17;1.23;;;;;;;;;;5081886;28;20039;-78
2023/07/18 13:20:49;;;;;;;1.63;1.05;;;;;;;;;;5079477;28;20361;-78
2023/07/18 13:23:15;;;;;;;1.67;1.00;;;;;;;;;;5079533;28;20036;-78
2023/07/18 13:25:40;;;;;;;2.22;1.00;;;;;;;;;;5114183;28;20035;-78
2023/07/18 13:28:06;;;;;;;2.00;1.20;;;;;;;;;;5080302;28;20441;-78
2023/07/18 13:30:31;;;;;;;1.05;0.95;;;;;;;;;;5079225;28;20463;-78
2023/07/18 13:32:57;;;;;;;1.40;0.98;;;;;;;;;;5077931;28;20055;-78
2023/07/18 13:35:22;;;;;;;2.38;1.00;;;;;;;;;;5060938;28;20043;-78
2023/07/18 13:37:47;;;;;;;1.80;1.00;;;;;;;;;;5077348;28;20032;-78
2023/07/18 13:40:13;;;;;;;1.98;1.05;;;;;;;;;;5111459;28;20070;-78
2023/07/18 13:42:38;;;;;;;1.95;1.05;;;;;;;;;;5077426;28;20429;-78
2023/07/18 13:45:07;;;;;;;2.83;1.60;;;;;;;;;;5109608;28;20115;-78
2023/07/18 13:47:33;;;;;;;1.92;0.93;;;;;;;;;;5075301;28;20494;-78
2023/07/18 13:49:59;;;;;;;1.58;0.90;;;;;;;;;;5108715;28;20032;-78
2023/07/18 13:52:25;;;;;;;1.00;0.88;;;;;;;;;;5074779;28;20033;-78
2023/07/18 13:54:51;;;;;;;2.35;1.00;;;;;;;;;;5074513;28;20479;-79
2023/07/18 13:57:16;;;;;;;1.63;1.00;;;;;;;;;;5075925;28;20128;-78
2023/07/18 13:59:43;;;;;;;2.88;1.23;;;;;;;;;;5076204;28;20102;-79
2023/07/18 14:02:09;;;;;;;2.10;1.17;;;;;;;;;;5074789;28;20024;-79
2023/07/18 14:04:35;;;;;;;1.63;0.70;;;;;;;;;;5076137;28;20029;-79
2023/07/18 14:07:00;;;;;;;1.40;1.02;;;;;;;;;;5074919;28;20056;-79
2023/07/18 14:09:26;;;;;;;2.30;1.02;;;;;;;;;;5091550;28;20432;-79
2023/07/18 14:11:51;;;;;;;2.63;1.00;;;;;;;;;;5076292;28;20052;-77
2023/07/18 14:14:17;;;;;;;1.05;0.95;;;;;;;;;;5078238;28;20033;-79
2023/07/18 14:16:42;;;;;;;1.30;1.00;;;;;;;;;;5108454;28;20475;-80
2023/07/18 14:19:08;;;;;;;2.78;0.95;;;;;;;;;;5074456;28;20430;-79
2023/07/18 14:21:33;;;;;;;1.05;0.90;;;;;;;;;;5108096;28;20043;-78
2023/07/18 14:23:59;;;;;;;0.70;0.70;;;;;;;;;;5074580;28;20089;-78
2023/07/18 14:26:24;;;;;;;1.20;0.80;;;;;;;;;;5075602;28;20036;-78
2023/07/18 14:28:49;;;;;;;2.22;1.00;;;;;;;;;;5075306;28;20031;-78
2023/07/18 14:31:15;;;;;;;0.82;0.82;;;;;;;;;;5075334;28;20074;-78
2023/07/18 14:33:40;;;;;;;1.13;0.82;;;;;;;;;;5075467;28;20027;-79
2023/07/18 14:36:07;;;;;;;0.93;0.90;;;;;;;;;;5074273;28;20105;-78
2023/07/18 14:38:32;;;;;;;1.42;1.05;;;;;;;;;;5090980;28;20027;-78